sensor_id;sensor_type;location;lat;lon;timestamp;P1;durP1;ratioP1;P2;durP2;ratioP2
38358;SDS011;42072;48.044;14.416;2023-07-24T00:00:02;9.23;;;4.85;;
38358;SDS011;42072;48.044;14.416;2023-07-24T00:02:29;7.90;;;4.50;;
38358;SDS011;42072;48.044;14.416;2023-07-24T00:04:56;6.60;;;4.80;;
38358;SDS011;42072;48.044;14.416;2023-07-24T00:07:23;7.65;;;5.30;;
38358;SDS011;42072;48.044;14.416;2023-07-24T00:09:51;9.93;;;4.88;;
38358;SDS011;42072;48.044;14.416;2023-07-24T00:12:19;6.82;;;4.75;;
38358;SDS011;42072;48.044;14.416;2023-07-24T00:14:46;7.47;;;4.70;;
38358;SDS011;42072;48.044;14.416;2023-07-24T00:17:13;5.82;;;4.47;;
38358;SDS011;42072;48.044;14.416;2023-07-24T00:19:40;6.72;;;4.60;;
38358;SDS011;42072;48.044;14.416;2023-07-24T00:22:07;7.68;;;5.20;;
38358;SDS011;42072;48.044;14.416;2023-07-24T00:24:34;6.45;;;4.57;;
38358;SDS011;42072;48.044;14.416;2023-07-24T00:27:01;8.10;;;4.90;;
38358;SDS011;42072;48.044;14.416;2023-07-24T00:29:29;6.78;;;4.50;;
38358;SDS011;42072;48.044;14.416;2023-07-24T00:31:56;7.10;;;5.00;;
38358;SDS011;42072;48.044;14.416;2023-07-24T00:34:23;7.40;;;4.55;;
38358;SDS011;42072;48.044;14.416;2023-07-24T00:36:54;6.40;;;4.70;;
38358;SDS011;42072;48.044;14.416;2023-07-24T00:39:21;8.52;;;5.30;;
38358;SDS011;42072;48.044;14.416;2023-07-24T00:41:48;10.55;;;4.90;;
38358;SDS011;42072;48.044;14.416;2023-07-24T00:44:18;8.15;;;5.00;;
38358;SDS011;42072;48.044;14.416;2023-07-24T00:46:45;7.40;;;4.75;;
38358;SDS011;42072;48.044;14.416;2023-07-24T00:49:12;7.38;;;4.78;;
38358;SDS011;42072;48.044;14.416;2023-07-24T00:51:40;8.13;;;4.78;;
38358;SDS011;42072;48.044;14.416;2023-07-24T00:54:07;7.25;;;4.78;;
38358;SDS011;42072;48.044;14.416;2023-07-24T00:56:34;7.25;;;4.47;;
38358;SDS011;42072;48.044;14.416;2023-07-24T00:59:01;8.07;;;4.68;;
38358;SDS011;42072;48.044;14.416;2023-07-24T01:01:28;7.93;;;5.10;;
38358;SDS011;42072;48.044;14.416;2023-07-24T01:03:57;9.10;;;4.75;;
38358;SDS011;42072;48.044;14.416;2023-07-24T01:06:25;6.13;;;4.47;;
38358;SDS011;42072;48.044;14.416;2023-07-24T01:08:52;6.57;;;5.00;;
38358;SDS011;42072;48.044;14.416;2023-07-24T01:11:23;7.88;;;5.15;;
38358;SDS011;42072;48.044;14.416;2023-07-24T01:16:41;6.10;;;4.72;;
38358;SDS011;42072;48.044;14.416;2023-07-24T01:19:20;7.53;;;5.03;;
38358;SDS011;42072;48.044;14.416;2023-07-24T01:22:10;5.97;;;4.53;;
38358;SDS011;42072;48.044;14.416;2023-07-24T01:27:18;7.13;;;4.80;;
38358;SDS011;42072;48.044;14.416;2023-07-24T01:29:54;6.38;;;4.93;;
38358;SDS011;42072;48.044;14.416;2023-07-24T01:32:21;9.05;;;4.93;;
38358;SDS011;42072;48.044;14.416;2023-07-24T01:34:48;8.25;;;5.78;;
38358;SDS011;42072;48.044;14.416;2023-07-24T01:37:16;8.80;;;5.38;;
38358;SDS011;42072;48.044;14.416;2023-07-24T01:39:46;7.65;;;4.57;;
38358;SDS011;42072;48.044;14.416;2023-07-24T01:42:14;8.18;;;5.05;;
38358;SDS011;42072;48.044;14.416;2023-07-24T01:44:42;6.03;;;4.78;;
38358;SDS011;42072;48.044;14.416;2023-07-24T01:47:09;7.18;;;5.65;;
38358;SDS011;42072;48.044;14.416;2023-07-24T01:49:36;7.95;;;5.05;;
38358;SDS011;42072;48.044;14.416;2023-07-24T01:52:03;11.85;;;5.40;;
38358;SDS011;42072;48.044;14.416;2023-07-24T01:54:31;6.97;;;5.32;;
38358;SDS011;42072;48.044;14.416;2023-07-24T01:56:58;8.23;;;5.55;;
38358;SDS011;42072;48.044;14.416;2023-07-24T01:59:25;8.25;;;4.93;;
38358;SDS011;42072;48.044;14.416;2023-07-24T02:01:52;7.57;;;5.10;;
38358;SDS011;42072;48.044;14.416;2023-07-24T02:04:19;8.65;;;5.40;;
38358;SDS011;42072;48.044;14.416;2023-07-24T02:06:49;6.70;;;4.93;;
38358;SDS011;42072;48.044;14.416;2023-07-24T02:09:19;7.43;;;5.10;;
38358;SDS011;42072;48.044;14.416;2023-07-24T02:11:46;7.00;;;5.20;;
38358;SDS011;42072;48.044;14.416;2023-07-24T02:14:14;9.65;;;4.85;;
38358;SDS011;42072;48.044;14.416;2023-07-24T02:16:43;6.63;;;4.90;;
38358;SDS011;42072;48.044;14.416;2023-07-24T02:19:10;9.23;;;5.43;;
38358;SDS011;42072;48.044;14.416;2023-07-24T02:21:37;9.40;;;5.60;;
38358;SDS011;42072;48.044;14.416;2023-07-24T02:24:04;7.20;;;5.20;;
38358;SDS011;42072;48.044;14.416;2023-07-24T02:26:31;7.43;;;5.28;;
38358;SDS011;42072;48.044;14.416;2023-07-24T02:28:58;8.60;;;5.15;;
38358;SDS011;42072;48.044;14.416;2023-07-24T02:31:25;8.70;;;5.22;;
38358;SDS011;42072;48.044;14.416;2023-07-24T02:33:53;7.30;;;5.32;;
38358;SDS011;42072;48.044;14.416;2023-07-24T02:36:20;7.00;;;5.15;;
38358;SDS011;42072;48.044;14.416;2023-07-24T02:38:47;10.30;;;6.10;;
38358;SDS011;42072;48.044;14.416;2023-07-24T02:41:14;9.23;;;5.43;;
38358;SDS011;42072;48.044;14.416;2023-07-24T02:43:41;6.40;;;4.88;;
38358;SDS011;42072;48.044;14.416;2023-07-24T02:46:08;10.13;;;5.82;;
38358;SDS011;42072;48.044;14.416;2023-07-24T02:48:35;9.80;;;5.47;;
38358;SDS011;42072;48.044;14.416;2023-07-24T02:51:02;9.43;;;5.47;;
38358;SDS011;42072;48.044;14.416;2023-07-24T02:53:29;6.75;;;5.30;;
38358;SDS011;42072;48.044;14.416;2023-07-24T02:55:56;7.15;;;5.20;;
38358;SDS011;42072;48.044;14.416;2023-07-24T02:58:23;9.23;;;5.30;;
38358;SDS011;42072;48.044;14.416;2023-07-24T03:00:50;9.65;;;5.57;;
38358;SDS011;42072;48.044;14.416;2023-07-24T03:03:17;8.63;;;5.78;;
38358;SDS011;42072;48.044;14.416;2023-07-24T03:05:45;10.13;;;5.50;;
38358;SDS011;42072;48.044;14.416;2023-07-24T03:08:12;7.70;;;5.53;;
38358;SDS011;42072;48.044;14.416;2023-07-24T03:10:42;10.73;;;5.88;;
38358;SDS011;42072;48.044;14.416;2023-07-24T03:13:09;10.52;;;5.53;;
38358;SDS011;42072;48.044;14.416;2023-07-24T03:15:36;9.25;;;6.00;;
38358;SDS011;42072;48.044;14.416;2023-07-24T03:18:03;10.93;;;5.65;;
38358;SDS011;42072;48.044;14.416;2023-07-24T03:20:30;9.75;;;5.88;;
38358;SDS011;42072;48.044;14.416;2023-07-24T03:22:57;8.05;;;5.65;;
38358;SDS011;42072;48.044;14.416;2023-07-24T03:25:24;8.88;;;5.60;;
38358;SDS011;42072;48.044;14.416;2023-07-24T03:27:51;8.77;;;5.65;;
38358;SDS011;42072;48.044;14.416;2023-07-24T03:30:18;8.55;;;5.53;;
38358;SDS011;42072;48.044;14.416;2023-07-24T03:32:46;7.55;;;5.25;;
38358;SDS011;42072;48.044;14.416;2023-07-24T03:35:13;7.20;;;5.15;;
38358;SDS011;42072;48.044;14.416;2023-07-24T03:37:40;8.77;;;5.40;;
38358;SDS011;42072;48.044;14.416;2023-07-24T03:40:07;9.05;;;5.90;;
38358;SDS011;42072;48.044;14.416;2023-07-24T03:42:34;7.47;;;5.28;;
38358;SDS011;42072;48.044;14.416;2023-07-24T03:45:01;8.38;;;5.70;;
38358;SDS011;42072;48.044;14.416;2023-07-24T03:47:29;9.95;;;5.45;;
38358;SDS011;42072;48.044;14.416;2023-07-24T03:49:56;7.80;;;5.60;;
38358;SDS011;42072;48.044;14.416;2023-07-24T03:52:23;8.23;;;5.50;;
38358;SDS011;42072;48.044;14.416;2023-07-24T03:54:51;7.45;;;5.07;;
38358;SDS011;42072;48.044;14.416;2023-07-24T03:57:18;9.77;;;5.40;;
38358;SDS011;42072;48.044;14.416;2023-07-24T03:59:45;13.45;;;5.47;;
38358;SDS011;42072;48.044;14.416;2023-07-24T04:02:13;8.93;;;5.15;;
38358;SDS011;42072;48.044;14.416;2023-07-24T04:04:40;10.75;;;5.72;;
38358;SDS011;42072;48.044;14.416;2023-07-24T04:07:07;10.50;;;5.78;;
38358;SDS011;42072;48.044;14.416;2023-07-24T04:09:34;8.70;;;5.82;;
38358;SDS011;42072;48.044;14.416;2023-07-24T04:12:01;9.45;;;5.78;;
38358;SDS011;42072;48.044;14.416;2023-07-24T04:14:29;10.68;;;6.10;;
38358;SDS011;42072;48.044;14.416;2023-07-24T04:16:56;7.07;;;5.15;;
38358;SDS011;42072;48.044;14.416;2023-07-24T04:19:23;9.50;;;5.40;;
38358;SDS011;42072;48.044;14.416;2023-07-24T04:21:50;10.10;;;5.88;;
38358;SDS011;42072;48.044;14.416;2023-07-24T04:24:17;8.95;;;5.20;;
38358;SDS011;42072;48.044;14.416;2023-07-24T04:26:44;8.25;;;5.60;;
38358;SDS011;42072;48.044;14.416;2023-07-24T04:29:11;8.77;;;5.40;;
38358;SDS011;42072;48.044;14.416;2023-07-24T04:31:39;10.25;;;6.03;;
38358;SDS011;42072;48.044;14.416;2023-07-24T04:34:06;9.55;;;5.53;;
38358;SDS011;42072;48.044;14.416;2023-07-24T04:36:33;8.27;;;5.30;;
38358;SDS011;42072;48.044;14.416;2023-07-24T04:39:00;8.05;;;5.57;;
38358;SDS011;42072;48.044;14.416;2023-07-24T04:41:27;10.23;;;5.68;;
38358;SDS011;42072;48.044;14.416;2023-07-24T04:43:54;10.73;;;5.43;;
38358;SDS011;42072;48.044;14.416;2023-07-24T04:46:21;10.57;;;5.93;;
38358;SDS011;42072;48.044;14.416;2023-07-24T04:48:48;8.25;;;5.03;;
38358;SDS011;42072;48.044;14.416;2023-07-24T04:51:15;12.13;;;5.40;;
38358;SDS011;42072;48.044;14.416;2023-07-24T04:53:45;8.45;;;5.50;;
38358;SDS011;42072;48.044;14.416;2023-07-24T04:56:12;8.00;;;5.82;;
38358;SDS011;42072;48.044;14.416;2023-07-24T04:58:39;8.30;;;6.07;;
38358;SDS011;42072;48.044;14.416;2023-07-24T05:01:06;9.30;;;5.38;;
38358;SDS011;42072;48.044;14.416;2023-07-24T05:03:33;8.68;;;5.45;;
38358;SDS011;42072;48.044;14.416;2023-07-24T05:06:00;7.15;;;5.25;;
38358;SDS011;42072;48.044;14.416;2023-07-24T05:08:27;13.75;;;5.68;;
38358;SDS011;42072;48.044;14.416;2023-07-24T05:10:57;10.73;;;5.57;;
38358;SDS011;42072;48.044;14.416;2023-07-24T05:13:25;10.40;;;5.53;;
38358;SDS011;42072;48.044;14.416;2023-07-24T05:15:53;8.70;;;6.07;;
38358;SDS011;42072;48.044;14.416;2023-07-24T05:18:20;7.60;;;5.25;;
38358;SDS011;42072;48.044;14.416;2023-07-24T05:20:48;7.25;;;5.18;;
38358;SDS011;42072;48.044;14.416;2023-07-24T05:23:19;8.85;;;5.95;;
38358;SDS011;42072;48.044;14.416;2023-07-24T05:25:46;10.30;;;6.38;;
38358;SDS011;42072;48.044;14.416;2023-07-24T05:28:13;10.63;;;6.72;;
38358;SDS011;42072;48.044;14.416;2023-07-24T05:30:40;7.05;;;5.63;;
38358;SDS011;42072;48.044;14.416;2023-07-24T05:33:07;8.40;;;5.60;;
38358;SDS011;42072;48.044;14.416;2023-07-24T05:35:35;8.98;;;5.97;;
38358;SDS011;42072;48.044;14.416;2023-07-24T05:38:02;8.18;;;5.72;;
38358;SDS011;42072;48.044;14.416;2023-07-24T05:40:29;10.85;;;6.53;;
38358;SDS011;42072;48.044;14.416;2023-07-24T05:42:58;10.32;;;5.68;;
38358;SDS011;42072;48.044;14.416;2023-07-24T05:45:26;12.48;;;5.82;;
38358;SDS011;42072;48.044;14.416;2023-07-24T05:47:54;7.25;;;5.47;;
38358;SDS011;42072;48.044;14.416;2023-07-24T05:50:21;9.60;;;5.78;;
38358;SDS011;42072;48.044;14.416;2023-07-24T05:52:48;13.02;;;6.35;;
38358;SDS011;42072;48.044;14.416;2023-07-24T05:55:15;10.85;;;5.53;;
38358;SDS011;42072;48.044;14.416;2023-07-24T05:57:42;11.05;;;6.20;;
38358;SDS011;42072;48.044;14.416;2023-07-24T06:00:11;11.30;;;6.25;;
38358;SDS011;42072;48.044;14.416;2023-07-24T06:02:38;12.18;;;5.85;;
38358;SDS011;42072;48.044;14.416;2023-07-24T06:05:05;15.55;;;5.90;;
38358;SDS011;42072;48.044;14.416;2023-07-24T06:07:33;14.63;;;6.50;;
38358;SDS011;42072;48.044;14.416;2023-07-24T06:10:00;9.35;;;6.13;;
38358;SDS011;42072;48.044;14.416;2023-07-24T06:12:27;12.38;;;6.32;;
38358;SDS011;42072;48.044;14.416;2023-07-24T06:14:54;13.80;;;6.10;;
38358;SDS011;42072;48.044;14.416;2023-07-24T06:17:21;11.40;;;5.72;;
38358;SDS011;42072;48.044;14.416;2023-07-24T06:19:48;10.30;;;6.30;;
38358;SDS011;42072;48.044;14.416;2023-07-24T06:22:15;17.60;;;6.90;;
38358;SDS011;42072;48.044;14.416;2023-07-24T06:24:42;9.55;;;6.15;;
38358;SDS011;42072;48.044;14.416;2023-07-24T06:27:09;12.73;;;6.60;;
38358;SDS011;42072;48.044;14.416;2023-07-24T06:29:36;12.60;;;6.70;;
38358;SDS011;42072;48.044;14.416;2023-07-24T06:32:05;13.65;;;6.50;;
38358;SDS011;42072;48.044;14.416;2023-07-24T06:34:33;11.27;;;6.50;;
38358;SDS011;42072;48.044;14.416;2023-07-24T06:37:01;9.52;;;6.53;;
38358;SDS011;42072;48.044;14.416;2023-07-24T06:39:46;12.40;;;6.55;;
38358;SDS011;42072;48.044;14.416;2023-07-24T06:42:13;12.32;;;6.20;;
38358;SDS011;42072;48.044;14.416;2023-07-24T06:44:40;10.70;;;6.38;;
38358;SDS011;42072;48.044;14.416;2023-07-24T06:47:07;9.38;;;6.13;;
38358;SDS011;42072;48.044;14.416;2023-07-24T06:49:34;13.25;;;6.28;;
38358;SDS011;42072;48.044;14.416;2023-07-24T06:52:02;13.70;;;6.78;;
38358;SDS011;42072;48.044;14.416;2023-07-24T06:54:29;9.25;;;6.68;;
38358;SDS011;42072;48.044;14.416;2023-07-24T06:56:56;11.07;;;6.32;;
38358;SDS011;42072;48.044;14.416;2023-07-24T06:59:23;10.77;;;6.18;;
38358;SDS011;42072;48.044;14.416;2023-07-24T07:01:50;9.07;;;6.13;;
38358;SDS011;42072;48.044;14.416;2023-07-24T07:04:18;10.48;;;6.35;;
38358;SDS011;42072;48.044;14.416;2023-07-24T07:06:45;10.20;;;6.63;;
38358;SDS011;42072;48.044;14.416;2023-07-24T07:09:12;13.05;;;6.57;;
38358;SDS011;42072;48.044;14.416;2023-07-24T07:11:39;10.25;;;6.30;;
38358;SDS011;42072;48.044;14.416;2023-07-24T07:14:06;8.80;;;6.10;;
38358;SDS011;42072;48.044;14.416;2023-07-24T07:16:35;10.63;;;6.88;;
38358;SDS011;42072;48.044;14.416;2023-07-24T07:19:02;8.70;;;6.25;;
38358;SDS011;42072;48.044;14.416;2023-07-24T07:21:29;9.32;;;6.05;;
38358;SDS011;42072;48.044;14.416;2023-07-24T07:23:56;8.55;;;5.72;;
38358;SDS011;42072;48.044;14.416;2023-07-24T07:26:23;8.68;;;6.30;;
38358;SDS011;42072;48.044;14.416;2023-07-24T07:28:51;11.05;;;6.32;;
38358;SDS011;42072;48.044;14.416;2023-07-24T07:31:18;9.00;;;6.45;;
38358;SDS011;42072;48.044;14.416;2023-07-24T07:33:46;11.32;;;6.10;;
38358;SDS011;42072;48.044;14.416;2023-07-24T07:36:13;10.52;;;6.13;;
38358;SDS011;42072;48.044;14.416;2023-07-24T07:38:40;8.73;;;5.90;;
38358;SDS011;42072;48.044;14.416;2023-07-24T07:41:08;12.63;;;6.15;;
38358;SDS011;42072;48.044;14.416;2023-07-24T07:43:38;13.43;;;6.07;;
38358;SDS011;42072;48.044;14.416;2023-07-24T07:46:05;12.40;;;6.90;;
38358;SDS011;42072;48.044;14.416;2023-07-24T07:48:32;11.75;;;6.50;;
38358;SDS011;42072;48.044;14.416;2023-07-24T07:50:59;12.70;;;7.57;;
38358;SDS011;42072;48.044;14.416;2023-07-24T07:53:26;10.13;;;6.60;;
38358;SDS011;42072;48.044;14.416;2023-07-24T07:55:56;9.77;;;6.40;;
38358;SDS011;42072;48.044;14.416;2023-07-24T07:58:24;9.73;;;7.30;;
38358;SDS011;42072;48.044;14.416;2023-07-24T08:00:52;9.07;;;6.78;;
38358;SDS011;42072;48.044;14.416;2023-07-24T08:03:19;9.40;;;6.40;;
38358;SDS011;42072;48.044;14.416;2023-07-24T08:05:46;8.95;;;6.72;;
38358;SDS011;42072;48.044;14.416;2023-07-24T08:08:13;9.65;;;6.43;;
38358;SDS011;42072;48.044;14.416;2023-07-24T08:10:40;10.00;;;7.13;;
38358;SDS011;42072;48.044;14.416;2023-07-24T08:13:07;11.32;;;6.80;;
38358;SDS011;42072;48.044;14.416;2023-07-24T08:15:35;8.88;;;6.72;;
38358;SDS011;42072;48.044;14.416;2023-07-24T08:18:04;8.77;;;6.38;;
38358;SDS011;42072;48.044;14.416;2023-07-24T08:20:32;10.15;;;6.40;;
38358;SDS011;42072;48.044;14.416;2023-07-24T08:23:02;9.27;;;6.70;;
38358;SDS011;42072;48.044;14.416;2023-07-24T08:25:29;9.43;;;6.75;;
38358;SDS011;42072;48.044;14.416;2023-07-24T08:27:57;11.50;;;7.35;;
38358;SDS011;42072;48.044;14.416;2023-07-24T08:30:27;11.45;;;6.80;;
38358;SDS011;42072;48.044;14.416;2023-07-24T08:32:55;10.40;;;7.07;;
38358;SDS011;42072;48.044;14.416;2023-07-24T08:35:23;10.00;;;6.68;;
38358;SDS011;42072;48.044;14.416;2023-07-24T08:37:50;11.70;;;7.28;;
38358;SDS011;42072;48.044;14.416;2023-07-24T08:40:17;8.77;;;7.13;;
38358;SDS011;42072;48.044;14.416;2023-07-24T08:42:44;9.88;;;7.13;;
38358;SDS011;42072;48.044;14.416;2023-07-24T08:45:15;10.38;;;7.07;;
38358;SDS011;42072;48.044;14.416;2023-07-24T08:47:43;11.20;;;7.03;;
38358;SDS011;42072;48.044;14.416;2023-07-24T08:50:12;9.43;;;7.05;;
38358;SDS011;42072;48.044;14.416;2023-07-24T08:52:42;9.18;;;7.45;;
38358;SDS011;42072;48.044;14.416;2023-07-24T08:55:12;11.38;;;7.32;;
38358;SDS011;42072;48.044;14.416;2023-07-24T08:57:42;10.52;;;7.45;;
38358;SDS011;42072;48.044;14.416;2023-07-24T09:00:09;10.07;;;7.85;;
38358;SDS011;42072;48.044;14.416;2023-07-24T09:02:36;9.25;;;7.57;;
38358;SDS011;42072;48.044;14.416;2023-07-24T09:05:04;9.15;;;7.55;;
38358;SDS011;42072;48.044;14.416;2023-07-24T09:07:31;9.43;;;7.50;;
38358;SDS011;42072;48.044;14.416;2023-07-24T09:09:59;10.38;;;8.00;;
38358;SDS011;42072;48.044;14.416;2023-07-24T09:12:26;11.20;;;7.70;;
38358;SDS011;42072;48.044;14.416;2023-07-24T09:15:00;10.25;;;7.72;;
38358;SDS011;42072;48.044;14.416;2023-07-24T09:17:33;11.77;;;7.15;;
38358;SDS011;42072;48.044;14.416;2023-07-24T09:20:01;11.98;;;7.97;;
38358;SDS011;42072;48.044;14.416;2023-07-24T09:22:30;10.55;;;7.15;;
38358;SDS011;42072;48.044;14.416;2023-07-24T09:24:59;10.05;;;7.43;;
38358;SDS011;42072;48.044;14.416;2023-07-24T09:27:30;9.45;;;7.68;;
38358;SDS011;42072;48.044;14.416;2023-07-24T09:29:59;10.32;;;7.30;;
38358;SDS011;42072;48.044;14.416;2023-07-24T09:32:30;11.05;;;8.40;;
38358;SDS011;42072;48.044;14.416;2023-07-24T09:34:58;12.80;;;7.72;;
38358;SDS011;42072;48.044;14.416;2023-07-24T09:37:26;11.70;;;7.75;;
38358;SDS011;42072;48.044;14.416;2023-07-24T09:39:54;12.35;;;8.32;;
38358;SDS011;42072;48.044;14.416;2023-07-24T09:42:31;11.20;;;7.80;;
38358;SDS011;42072;48.044;14.416;2023-07-24T09:45:10;10.40;;;7.60;;
38358;SDS011;42072;48.044;14.416;2023-07-24T09:47:37;10.60;;;7.95;;
38358;SDS011;42072;48.044;14.416;2023-07-24T09:50:09;12.05;;;7.90;;
38358;SDS011;42072;48.044;14.416;2023-07-24T09:52:37;10.88;;;7.60;;
38358;SDS011;42072;48.044;14.416;2023-07-24T09:55:11;9.73;;;7.30;;
38358;SDS011;42072;48.044;14.416;2023-07-24T09:57:45;9.57;;;7.22;;
38358;SDS011;42072;48.044;14.416;2023-07-24T10:00:14;13.45;;;7.53;;
38358;SDS011;42072;48.044;14.416;2023-07-24T10:02:42;10.70;;;7.50;;
38358;SDS011;42072;48.044;14.416;2023-07-24T10:05:11;11.38;;;7.75;;
38358;SDS011;42072;48.044;14.416;2023-07-24T10:07:38;10.38;;;6.97;;
38358;SDS011;42072;48.044;14.416;2023-07-24T10:10:06;13.18;;;7.05;;
38358;SDS011;42072;48.044;14.416;2023-07-24T10:12:34;13.88;;;7.63;;
38358;SDS011;42072;48.044;14.416;2023-07-24T10:15:03;12.35;;;7.63;;
38358;SDS011;42072;48.044;14.416;2023-07-24T10:17:38;11.15;;;7.47;;
38358;SDS011;42072;48.044;14.416;2023-07-24T10:20:08;11.43;;;7.70;;
38358;SDS011;42072;48.044;14.416;2023-07-24T10:22:36;18.30;;;7.45;;
38358;SDS011;42072;48.044;14.416;2023-07-24T10:25:08;13.43;;;7.57;;
38358;SDS011;42072;48.044;14.416;2023-07-24T10:27:41;13.70;;;7.60;;
38358;SDS011;42072;48.044;14.416;2023-07-24T10:30:10;10.55;;;7.15;;
38358;SDS011;42072;48.044;14.416;2023-07-24T10:33:07;11.75;;;6.63;;
38358;SDS011;42072;48.044;14.416;2023-07-24T10:38:17;9.98;;;7.35;;
38358;SDS011;42072;48.044;14.416;2023-07-24T10:40:45;11.93;;;7.25;;
38358;SDS011;42072;48.044;14.416;2023-07-24T10:43:18;11.75;;;7.80;;
38358;SDS011;42072;48.044;14.416;2023-07-24T10:45:51;11.30;;;7.63;;
38358;SDS011;42072;48.044;14.416;2023-07-24T10:48:20;10.63;;;7.63;;
38358;SDS011;42072;48.044;14.416;2023-07-24T10:50:49;11.00;;;6.97;;
38358;SDS011;42072;48.044;14.416;2023-07-24T10:53:21;11.90;;;7.68;;
38358;SDS011;42072;48.044;14.416;2023-07-24T10:55:49;13.55;;;7.05;;
38358;SDS011;42072;48.044;14.416;2023-07-24T10:58:17;9.82;;;7.10;;
38358;SDS011;42072;48.044;14.416;2023-07-24T11:00:45;11.20;;;7.70;;
38358;SDS011;42072;48.044;14.416;2023-07-24T11:03:14;11.65;;;7.05;;
38358;SDS011;42072;48.044;14.416;2023-07-24T11:05:41;10.65;;;7.70;;
38358;SDS011;42072;48.044;14.416;2023-07-24T11:10:50;9.13;;;7.30;;
38358;SDS011;42072;48.044;14.416;2023-07-24T11:13:19;10.68;;;7.30;;
38358;SDS011;42072;48.044;14.416;2023-07-24T11:15:50;12.30;;;7.93;;
38358;SDS011;42072;48.044;14.416;2023-07-24T11:18:19;11.57;;;7.93;;
38358;SDS011;42072;48.044;14.416;2023-07-24T11:20:49;12.40;;;7.32;;
38358;SDS011;42072;48.044;14.416;2023-07-24T11:23:17;12.73;;;8.82;;
38358;SDS011;42072;48.044;14.416;2023-07-24T11:25:44;12.25;;;7.68;;
38358;SDS011;42072;48.044;14.416;2023-07-24T11:28:13;10.85;;;7.70;;
38358;SDS011;42072;48.044;14.416;2023-07-24T11:30:41;10.73;;;7.28;;
38358;SDS011;42072;48.044;14.416;2023-07-24T11:33:10;12.32;;;8.00;;
38358;SDS011;42072;48.044;14.416;2023-07-24T11:35:42;13.38;;;7.88;;
38358;SDS011;42072;48.044;14.416;2023-07-24T11:38:09;10.73;;;7.28;;
38358;SDS011;42072;48.044;14.416;2023-07-24T11:40:37;13.95;;;7.10;;
38358;SDS011;42072;48.044;14.416;2023-07-24T11:43:14;18.10;;;7.65;;
38358;SDS011;42072;48.044;14.416;2023-07-24T11:45:46;15.35;;;7.72;;
38358;SDS011;42072;48.044;14.416;2023-07-24T11:48:20;11.70;;;8.05;;
38358;SDS011;42072;48.044;14.416;2023-07-24T11:50:53;13.32;;;8.18;;
38358;SDS011;42072;48.044;14.416;2023-07-24T11:53:25;17.10;;;7.93;;
38358;SDS011;42072;48.044;14.416;2023-07-24T11:55:57;11.07;;;7.57;;
38358;SDS011;42072;48.044;14.416;2023-07-24T11:58:26;9.07;;;7.28;;
38358;SDS011;42072;48.044;14.416;2023-07-24T12:00:56;12.98;;;8.20;;
38358;SDS011;42072;48.044;14.416;2023-07-24T12:03:24;12.23;;;7.35;;
38358;SDS011;42072;48.044;14.416;2023-07-24T12:05:53;11.90;;;8.23;;
38358;SDS011;42072;48.044;14.416;2023-07-24T12:08:21;12.02;;;8.23;;
38358;SDS011;42072;48.044;14.416;2023-07-24T12:10:56;11.45;;;7.82;;
38358;SDS011;42072;48.044;14.416;2023-07-24T12:13:23;11.13;;;8.00;;
38358;SDS011;42072;48.044;14.416;2023-07-24T12:15:50;12.80;;;7.80;;
38358;SDS011;42072;48.044;14.416;2023-07-24T12:18:17;11.88;;;7.70;;
38358;SDS011;42072;48.044;14.416;2023-07-24T12:20:44;11.00;;;7.63;;
38358;SDS011;42072;48.044;14.416;2023-07-24T12:23:12;15.43;;;8.05;;
38358;SDS011;42072;48.044;14.416;2023-07-24T12:25:40;14.07;;;7.93;;
38358;SDS011;42072;48.044;14.416;2023-07-24T12:28:07;14.63;;;8.40;;
38358;SDS011;42072;48.044;14.416;2023-07-24T12:30:34;12.85;;;8.00;;
38358;SDS011;42072;48.044;14.416;2023-07-24T12:33:01;13.55;;;8.57;;
38358;SDS011;42072;48.044;14.416;2023-07-24T12:35:28;9.18;;;7.15;;
38358;SDS011;42072;48.044;14.416;2023-07-24T12:37:55;12.07;;;8.63;;
38358;SDS011;42072;48.044;14.416;2023-07-24T12:40:22;10.85;;;7.97;;
38358;SDS011;42072;48.044;14.416;2023-07-24T12:42:50;11.15;;;8.02;;
38358;SDS011;42072;48.044;14.416;2023-07-24T12:45:17;12.48;;;7.88;;
38358;SDS011;42072;48.044;14.416;2023-07-24T12:47:44;13.95;;;8.50;;
38358;SDS011;42072;48.044;14.416;2023-07-24T12:50:11;14.40;;;8.15;;
38358;SDS011;42072;48.044;14.416;2023-07-24T12:52:38;11.45;;;8.05;;
38358;SDS011;42072;48.044;14.416;2023-07-24T12:55:06;11.85;;;8.20;;
38358;SDS011;42072;48.044;14.416;2023-07-24T12:57:33;13.07;;;8.55;;
38358;SDS011;42072;48.044;14.416;2023-07-24T13:00:00;11.57;;;7.82;;
38358;SDS011;42072;48.044;14.416;2023-07-24T13:02:27;10.63;;;7.93;;
38358;SDS011;42072;48.044;14.416;2023-07-24T13:04:55;12.70;;;8.27;;
38358;SDS011;42072;48.044;14.416;2023-07-24T13:07:22;12.52;;;7.90;;
38358;SDS011;42072;48.044;14.416;2023-07-24T13:09:49;11.93;;;7.53;;
38358;SDS011;42072;48.044;14.416;2023-07-24T13:12:16;13.00;;;8.40;;
38358;SDS011;42072;48.044;14.416;2023-07-24T13:14:43;10.88;;;8.15;;
38358;SDS011;42072;48.044;14.416;2023-07-24T13:17:10;10.73;;;7.68;;
38358;SDS011;42072;48.044;14.416;2023-07-24T13:19:38;12.48;;;8.43;;
38358;SDS011;42072;48.044;14.416;2023-07-24T13:22:05;9.85;;;8.00;;
38358;SDS011;42072;48.044;14.416;2023-07-24T13:24:32;10.82;;;7.72;;
38358;SDS011;42072;48.044;14.416;2023-07-24T13:26:59;10.50;;;7.72;;
38358;SDS011;42072;48.044;14.416;2023-07-24T13:29:27;10.68;;;7.93;;
38358;SDS011;42072;48.044;14.416;2023-07-24T13:31:56;11.88;;;8.68;;
38358;SDS011;42072;48.044;14.416;2023-07-24T13:34:23;13.05;;;8.77;;
38358;SDS011;42072;48.044;14.416;2023-07-24T13:36:51;12.13;;;8.55;;
38358;SDS011;42072;48.044;14.416;2023-07-24T13:39:19;12.40;;;8.77;;
38358;SDS011;42072;48.044;14.416;2023-07-24T13:41:46;14.85;;;8.50;;
38358;SDS011;42072;48.044;14.416;2023-07-24T13:44:14;18.50;;;8.57;;
38358;SDS011;42072;48.044;14.416;2023-07-24T13:46:41;10.90;;;8.40;;
38358;SDS011;42072;48.044;14.416;2023-07-24T13:49:08;14.30;;;8.88;;
38358;SDS011;42072;48.044;14.416;2023-07-24T13:51:36;12.10;;;7.63;;
38358;SDS011;42072;48.044;14.416;2023-07-24T13:54:03;14.15;;;8.50;;
38358;SDS011;42072;48.044;14.416;2023-07-24T13:56:30;12.13;;;8.35;;
38358;SDS011;42072;48.044;14.416;2023-07-24T13:59:01;11.02;;;7.28;;
38358;SDS011;42072;48.044;14.416;2023-07-24T14:01:29;13.75;;;8.30;;
38358;SDS011;42072;48.044;14.416;2023-07-24T14:03:57;11.93;;;8.30;;
38358;SDS011;42072;48.044;14.416;2023-07-24T14:06:25;11.65;;;8.10;;
38358;SDS011;42072;48.044;14.416;2023-07-24T14:08:52;13.70;;;8.32;;
38358;SDS011;42072;48.044;14.416;2023-07-24T14:11:19;11.55;;;7.93;;
38358;SDS011;42072;48.044;14.416;2023-07-24T14:13:46;12.38;;;8.20;;
38358;SDS011;42072;48.044;14.416;2023-07-24T14:16:13;11.48;;;8.23;;
38358;SDS011;42072;48.044;14.416;2023-07-24T14:18:41;13.45;;;8.35;;
38358;SDS011;42072;48.044;14.416;2023-07-24T14:21:08;10.43;;;7.82;;
38358;SDS011;42072;48.044;14.416;2023-07-24T14:23:36;11.32;;;8.82;;
38358;SDS011;42072;48.044;14.416;2023-07-24T14:26:03;12.13;;;8.00;;
38358;SDS011;42072;48.044;14.416;2023-07-24T14:28:31;12.30;;;7.93;;
38358;SDS011;42072;48.044;14.416;2023-07-24T14:30:58;13.15;;;7.82;;
38358;SDS011;42072;48.044;14.416;2023-07-24T14:33:26;15.57;;;7.63;;
38358;SDS011;42072;48.044;14.416;2023-07-24T14:35:53;10.35;;;7.88;;
38358;SDS011;42072;48.044;14.416;2023-07-24T14:38:21;10.32;;;7.75;;
38358;SDS011;42072;48.044;14.416;2023-07-24T14:40:48;9.60;;;7.10;;
38358;SDS011;42072;48.044;14.416;2023-07-24T14:43:16;15.10;;;7.70;;